sensor_id;sensor_type;location;lat;lon;timestamp;temperature;humidity
34360;DHT22;20624;55.870;26.506;2023-02-28T00:16:21;-9.60;99.90
34360;DHT22;20624;55.870;26.506;2023-02-28T00:23:46;-9.70;99.90
34360;DHT22;20624;55.870;26.506;2023-02-28T00:50:58;-9.50;99.90
34360;DHT22;20624;55.870;26.506;2023-02-28T01:27:55;-9.00;99.90
34360;DHT22;20624;55.870;26.506;2023-02-28T01:30:23;-9.30;99.90
34360;DHT22;20624;55.870;26.506;2023-02-28T01:50:33;-8.30;99.90
34360;DHT22;20624;55.870;26.506;2023-02-28T01:53:05;-8.30;99.90
34360;DHT22;20624;55.870;26.506;2023-02-28T01:58:04;-9.80;99.90
34360;DHT22;20624;55.870;26.506;2023-02-28T02:00:32;-8.20;99.90
34360;DHT22;20624;55.870;26.506;2023-02-28T02:37:38;-8.40;99.90
34360;DHT22;20624;55.870;26.506;2023-02-28T02:47:39;-8.20;99.90
34360;DHT22;20624;55.870;26.506;2023-02-28T02:50:11;-8.30;99.90
34360;DHT22;20624;55.870;26.506;2023-02-28T02:52:45;-8.20;99.90
34360;DHT22;20624;55.870;26.506;2023-02-28T02:57:58;-8.00;99.90
34360;DHT22;20624;55.870;26.506;2023-02-28T03:00:31;-8.00;99.90
34360;DHT22;20624;55.870;26.506;2023-02-28T03:03:01;-8.00;99.90
34360;DHT22;20624;55.870;26.506;2023-02-28T03:05:41;-8.00;99.90
34360;DHT22;20624;55.870;26.506;2023-02-28T03:29:44;-7.30;99.90
34360;DHT22;20624;55.870;26.506;2023-02-28T03:32:29;-7.30;99.90
34360;DHT22;20624;55.870;26.506;2023-02-28T03:35:24;-7.50;99.90
34360;DHT22;20624;55.870;26.506;2023-02-28T03:38:10;-7.40;99.90
34360;DHT22;20624;55.870;26.506;2023-02-28T03:43:15;-7.30;99.90
34360;DHT22;20624;55.870;26.506;2023-02-28T03:45:50;-7.20;99.90
34360;DHT22;20624;55.870;26.506;2023-02-28T03:50:53;-7.10;99.90
34360;DHT22;20624;55.870;26.506;2023-02-28T03:55:56;-6.90;99.90
34360;DHT22;20624;55.870;26.506;2023-02-28T04:01:19;-6.90;99.90
34360;DHT22;20624;55.870;26.506;2023-02-28T04:03:47;-6.90;99.90
34360;DHT22;20624;55.870;26.506;2023-02-28T04:06:18;-6.80;99.90
34360;DHT22;20624;55.870;26.506;2023-02-28T04:08:46;-6.70;99.90
34360;DHT22;20624;55.870;26.506;2023-02-28T04:13:57;-6.70;99.90
34360;DHT22;20624;55.870;26.506;2023-02-28T04:16:25;-6.60;99.90
34360;DHT22;20624;55.870;26.506;2023-02-28T04:19:05;-6.60;99.90
34360;DHT22;20624;55.870;26.506;2023-02-28T04:21:39;-6.30;99.90
34360;DHT22;20624;55.870;26.506;2023-02-28T04:24:12;-6.40;99.90
34360;DHT22;20624;55.870;26.506;2023-02-28T04:26:48;-6.20;99.90
34360;DHT22;20624;55.870;26.506;2023-02-28T04:29:30;-6.10;99.90
34360;DHT22;20624;55.870;26.506;2023-02-28T04:32:02;-6.00;99.90
34360;DHT22;20624;55.870;26.506;2023-02-28T04:34:31;-5.20;99.90
34360;DHT22;20624;55.870;26.506;2023-02-28T04:36:58;-5.90;99.90
34360;DHT22;20624;55.870;26.506;2023-02-28T04:39:43;-5.80;99.90
34360;DHT22;20624;55.870;26.506;2023-02-28T04:42:11;-5.70;99.90
34360;DHT22;20624;55.870;26.506;2023-02-28T04:47:06;-5.60;99.90
34360;DHT22;20624;55.870;26.506;2023-02-28T04:49:34;-5.60;99.90
34360;DHT22;20624;55.870;26.506;2023-02-28T04:54:29;-5.50;99.90
34360;DHT22;20624;55.870;26.506;2023-02-28T04:56:59;-5.10;99.90
34360;DHT22;20624;55.870;26.506;2023-02-28T04:59:26;-4.80;99.90
34360;DHT22;20624;55.870;26.506;2023-02-28T05:01:53;-5.80;99.90
34360;DHT22;20624;55.870;26.506;2023-02-28T05:04:21;-2.10;99.90
34360;DHT22;20624;55.870;26.506;2023-02-28T05:06:49;-3.90;99.90
34360;DHT22;20624;55.870;26.506;2023-02-28T05:09:16;-3.60;99.90
34360;DHT22;20624;55.870;26.506;2023-02-28T05:19:07;-2.80;99.90
34360;DHT22;20624;55.870;26.506;2023-02-28T05:36:27;-2.70;99.90
34360;DHT22;20624;55.870;26.506;2023-02-28T05:48:47;-1.90;99.90
34360;DHT22;20624;55.870;26.506;2023-02-28T06:01:35;-1.30;99.90
34360;DHT22;20624;55.870;26.506;2023-02-28T06:04:05;-1.80;99.90
34360;DHT22;20624;55.870;26.506;2023-02-28T06:28:54;-2.50;99.90
34360;DHT22;20624;55.870;26.506;2023-02-28T06:31:22;-1.60;99.90
34360;DHT22;20624;55.870;26.506;2023-02-28T06:33:50;-1.60;99.90
34360;DHT22;20624;55.870;26.506;2023-02-28T06:38:45;-1.90;99.90
34360;DHT22;20624;55.870;26.506;2023-02-28T06:48:42;-1.30;99.90
34360;DHT22;20624;55.870;26.506;2023-02-28T06:51:13;-1.30;99.90
34360;DHT22;20624;55.870;26.506;2023-02-28T06:53:40;-1.30;99.90
34360;DHT22;20624;55.870;26.506;2023-02-28T06:56:10;-1.30;99.90
34360;DHT22;20624;55.870;26.506;2023-02-28T06:58:38;-1.50;99.90
34360;DHT22;20624;55.870;26.506;2023-02-28T07:13:31;-1.00;99.90
34360;DHT22;20624;55.870;26.506;2023-02-28T07:16:01;-0.80;99.90
34360;DHT22;20624;55.870;26.506;2023-02-28T07:18:29;-1.00;99.90
34360;DHT22;20624;55.870;26.506;2023-02-28T07:20:57;0.10;99.90
34360;DHT22;20624;55.870;26.506;2023-02-28T07:23:24;-0.90;99.90
34360;DHT22;20624;55.870;26.506;2023-02-28T07:25:52;-0.80;99.90
34360;DHT22;20624;55.870;26.506;2023-02-28T07:28:20;-0.70;99.90
34360;DHT22;20624;55.870;26.506;2023-02-28T07:33:16;-0.60;99.90
34360;DHT22;20624;55.870;26.506;2023-02-28T07:38:11;-0.60;99.90
34360;DHT22;20624;55.870;26.506;2023-02-28T07:40:40;-0.50;99.90
34360;DHT22;20624;55.870;26.506;2023-02-28T07:43:08;-0.30;99.90
34360;DHT22;20624;55.870;26.506;2023-02-28T07:45:35;-0.50;99.90
34360;DHT22;20624;55.870;26.506;2023-02-28T07:48:03;-0.60;99.90
34360;DHT22;20624;55.870;26.506;2023-02-28T07:50:30;-0.50;99.90
34360;DHT22;20624;55.870;26.506;2023-02-28T07:53:04;-1.10;99.90
34360;DHT22;20624;55.870;26.506;2023-02-28T07:58:01;-0.20;99.90
34360;DHT22;20624;55.870;26.506;2023-02-28T08:00:28;-0.10;99.90
34360;DHT22;20624;55.870;26.506;2023-02-28T08:02:58;-0.10;99.90
34360;DHT22;20624;55.870;26.506;2023-02-28T08:07:53;0.00;99.90
34360;DHT22;20624;55.870;26.506;2023-02-28T08:10:21;0.10;99.90
34360;DHT22;20624;55.870;26.506;2023-02-28T08:12:49;0.20;99.90
34360;DHT22;20624;55.870;26.506;2023-02-28T08:17:44;2.40;99.90
34360;DHT22;20624;55.870;26.506;2023-02-28T08:22:40;0.50;99.90
34360;DHT22;20624;55.870;26.506;2023-02-28T08:25:11;0.70;99.90
34360;DHT22;20624;55.870;26.506;2023-02-28T08:27:39;-0.40;99.90
34360;DHT22;20624;55.870;26.506;2023-02-28T08:30:07;0.90;99.90
34360;DHT22;20624;55.870;26.506;2023-02-28T08:32:36;0.90;99.90
34360;DHT22;20624;55.870;26.506;2023-02-28T08:35:04;1.00;99.90
34360;DHT22;20624;55.870;26.506;2023-02-28T08:39:59;1.00;99.90
34360;DHT22;20624;55.870;26.506;2023-02-28T08:42:27;1.10;99.90
34360;DHT22;20624;55.870;26.506;2023-02-28T08:44:54;1.30;99.90
34360;DHT22;20624;55.870;26.506;2023-02-28T08:47:21;1.60;99.90
34360;DHT22;20624;55.870;26.506;2023-02-28T08:49:49;1.50;99.90
34360;DHT22;20624;55.870;26.506;2023-02-28T08:52:17;1.20;99.90
34360;DHT22;20624;55.870;26.506;2023-02-28T08:54:44;1.60;99.90
34360;DHT22;20624;55.870;26.506;2023-02-28T08:57:11;1.60;99.90
34360;DHT22;20624;55.870;26.506;2023-02-28T09:02:08;1.70;99.90
34360;DHT22;20624;55.870;26.506;2023-02-28T09:04:35;1.80;99.90
34360;DHT22;20624;55.870;26.506;2023-02-28T09:07:02;1.70;99.90
34360;DHT22;20624;55.870;26.506;2023-02-28T09:11:58;2.20;99.90
34360;DHT22;20624;55.870;26.506;2023-02-28T09:14:26;2.20;99.90
34360;DHT22;20624;55.870;26.506;2023-02-28T09:19:21;2.60;99.90
34360;DHT22;20624;55.870;26.506;2023-02-28T09:21:49;3.00;99.90
34360;DHT22;20624;55.870;26.506;2023-02-28T09:24:17;2.70;99.90
34360;DHT22;20624;55.870;26.506;2023-02-28T09:26:45;2.70;99.90
34360;DHT22;20624;55.870;26.506;2023-02-28T09:29:31;2.50;99.90
34360;DHT22;20624;55.870;26.506;2023-02-28T09:31:58;2.70;99.90
34360;DHT22;20624;55.870;26.506;2023-02-28T09:34:27;2.10;99.90
34360;DHT22;20624;55.870;26.506;2023-02-28T09:36:55;1.90;99.90
34360;DHT22;20624;55.870;26.506;2023-02-28T09:39:25;2.00;99.90
34360;DHT22;20624;55.870;26.506;2023-02-28T09:41:54;2.10;99.90
34360;DHT22;20624;55.870;26.506;2023-02-28T09:47:02;2.00;99.90
34360;DHT22;20624;55.870;26.506;2023-02-28T09:49:37;2.20;99.90
34360;DHT22;20624;55.870;26.506;2023-02-28T09:52:30;2.20;99.90
34360;DHT22;20624;55.870;26.506;2023-02-28T09:57:43;2.10;99.90
34360;DHT22;20624;55.870;26.506;2023-02-28T10:09:41;2.40;99.90
34360;DHT22;20624;55.870;26.506;2023-02-28T10:11:52;2.30;99.90
34360;DHT22;20624;55.870;26.506;2023-02-28T10:14:29;2.30;99.90
34360;DHT22;20624;55.870;26.506;2023-02-28T10:16:59;2.30;99.90
34360;DHT22;20624;55.870;26.506;2023-02-28T10:25:21;2.20;99.90
34360;DHT22;20624;55.870;26.506;2023-02-28T10:27:50;2.50;99.90
34360;DHT22;20624;55.870;26.506;2023-02-28T10:30:20;2.30;99.90
34360;DHT22;20624;55.870;26.506;2023-02-28T10:32:55;2.30;99.90
34360;DHT22;20624;55.870;26.506;2023-02-28T10:38:00;2.50;99.90
34360;DHT22;20624;55.870;26.506;2023-02-28T10:40:33;2.20;99.90
34360;DHT22;20624;55.870;26.506;2023-02-28T10:43:03;2.20;99.90
34360;DHT22;20624;55.870;26.506;2023-02-28T10:45:35;2.50;99.90
34360;DHT22;20624;55.870;26.506;2023-02-28T10:50:50;3.20;99.90
34360;DHT22;20624;55.870;26.506;2023-02-28T10:59:00;2.90;99.90
34360;DHT22;20624;55.870;26.506;2023-02-28T11:01:42;2.90;99.90
34360;DHT22;20624;55.870;26.506;2023-02-28T11:04:43;2.70;99.90
34360;DHT22;20624;55.870;26.506;2023-02-28T11:07:29;3.10;99.90
34360;DHT22;20624;55.870;26.506;2023-02-28T11:10:19;3.10;99.90
34360;DHT22;20624;55.870;26.506;2023-02-28T11:12:48;3.10;99.90
34360;DHT22;20624;55.870;26.506;2023-02-28T11:15:28;3.40;99.90
34360;DHT22;20624;55.870;26.506;2023-02-28T11:18:15;3.00;99.90
34360;DHT22;20624;55.870;26.506;2023-02-28T11:20:53;3.50;99.90
34360;DHT22;20624;55.870;26.506;2023-02-28T11:23:27;3.90;99.90
34360;DHT22;20624;55.870;26.506;2023-02-28T11:26:02;3.80;99.90
34360;DHT22;20624;55.870;26.506;2023-02-28T11:28:39;3.80;99.90
34360;DHT22;20624;55.870;26.506;2023-02-28T11:34:25;4.00;99.90
34360;DHT22;20624;55.870;26.506;2023-02-28T11:37:03;3.90;99.90
34360;DHT22;20624;55.870;26.506;2023-02-28T11:39:36;4.20;99.90
34360;DHT22;20624;55.870;26.506;2023-02-28T11:42:23;4.00;99.90
34360;DHT22;20624;55.870;26.506;2023-02-28T11:50:57;4.30;99.90
34360;DHT22;20624;55.870;26.506;2023-02-28T12:13:46;3.70;99.90
34360;DHT22;20624;55.870;26.506;2023-02-28T12:19:20;3.70;99.90
34360;DHT22;20624;55.870;26.506;2023-02-28T12:27:52;3.50;99.90
34360;DHT22;20624;55.870;26.506;2023-02-28T12:30:24;3.50;99.90
34360;DHT22;20624;55.870;26.506;2023-02-28T12:33:09;3.60;99.90
34360;DHT22;20624;55.870;26.506;2023-02-28T12:36:13;3.60;99.90
34360;DHT22;20624;55.870;26.506;2023-02-28T12:39:07;3.50;99.90
34360;DHT22;20624;55.870;26.506;2023-02-28T12:42:30;3.60;99.90
34360;DHT22;20624;55.870;26.506;2023-02-28T12:45:25;3.00;99.90
34360;DHT22;20624;55.870;26.506;2023-02-28T12:48:13;3.60;99.90
34360;DHT22;20624;55.870;26.506;2023-02-28T12:50:45;3.60;99.90
34360;DHT22;20624;55.870;26.506;2023-02-28T12:58:46;3.50;99.90
34360;DHT22;20624;55.870;26.506;2023-02-28T13:01:42;3.50;99.90
34360;DHT22;20624;55.870;26.506;2023-02-28T13:04:42;3.50;99.90
34360;DHT22;20624;55.870;26.506;2023-02-28T13:10:02;3.00;99.90
34360;DHT22;20624;55.870;26.506;2023-02-28T13:12:38;3.50;99.90
34360;DHT22;20624;55.870;26.506;2023-02-28T13:15:28;3.50;99.90
34360;DHT22;20624;55.870;26.506;2023-02-28T13:18:03;3.50;99.90
34360;DHT22;20624;55.870;26.506;2023-02-28T13:20:37;3.40;99.90
34360;DHT22;20624;55.870;26.506;2023-02-28T13:24:35;3.50;99.90
34360;DHT22;20624;55.870;26.506;2023-02-28T13:29:36;3.60;99.90
34360;DHT22;20624;55.870;26.506;2023-02-28T13:40:31;3.50;99.90
34360;DHT22;20624;55.870;26.506;2023-02-28T13:43:06;3.50;99.90
34360;DHT22;20624;55.870;26.506;2023-02-28T13:45:35;3.50;99.90
34360;DHT22;20624;55.870;26.506;2023-02-28T13:48:19;3.50;99.90
34360;DHT22;20624;55.870;26.506;2023-02-28T13:53:40;3.50;99.90
34360;DHT22;20624;55.870;26.506;2023-02-28T13:56:29;3.50;99.90
34360;DHT22;20624;55.870;26.506;2023-02-28T14:05:06;2.20;99.90
34360;DHT22;20624;55.870;26.506;2023-02-28T14:07:47;3.50;99.90
34360;DHT22;20624;55.870;26.506;2023-02-28T14:16:20;3.50;99.90
34360;DHT22;20624;55.870;26.506;2023-02-28T14:19:14;3.40;99.90
34360;DHT22;20624;55.870;26.506;2023-02-28T14:36:04;3.20;99.90
34360;DHT22;20624;55.870;26.506;2023-02-28T14:38:57;3.20;99.90
34360;DHT22;20624;55.870;26.506;2023-02-28T14:44:21;2.80;99.90
34360;DHT22;20624;55.870;26.506;2023-02-28T14:47:02;3.00;99.90
34360;DHT22;20624;55.870;26.506;2023-02-28T14:52:18;3.20;99.90
34360;DHT22;20624;55.870;26.506;2023-02-28T14:54:56;3.00;99.90
34360;DHT22;20624;55.870;26.506;2023-02-28T14:57:30;3.00;99.90
34360;DHT22;20624;55.870;26.506;2023-02-28T15:02:34;3.00;99.90
34360;DHT22;20624;55.870;26.506;2023-02-28T15:05:27;3.10;99.90
34360;DHT22;20624;55.870;26.506;2023-02-28T15:08:14;3.00;99.90
34360;DHT22;20624;55.870;26.506;2023-02-28T15:10:59;2.30;99.90
34360;DHT22;20624;55.870;26.506;2023-02-28T15:16:37;3.00;99.90
34360;DHT22;20624;55.870;26.506;2023-02-28T15:19:18;2.90;99.90
34360;DHT22;20624;55.870;26.506;2023-02-28T15:21:50;3.00;99.90
34360;DHT22;20624;55.870;26.506;2023-02-28T15:24:39;3.00;99.90
34360;DHT22;20624;55.870;26.506;2023-02-28T15:27:27;2.90;99.90
34360;DHT22;20624;55.870;26.506;2023-02-28T15:30:12;2.90;99.90
34360;DHT22;20624;55.870;26.506;2023-02-28T15:35:30;2.80;99.90
34360;DHT22;20624;55.870;26.506;2023-02-28T15:38:12;2.80;99.90
34360;DHT22;20624;55.870;26.506;2023-02-28T15:40:45;2.80;99.90
34360;DHT22;20624;55.870;26.506;2023-02-28T15:43:30;2.80;99.90
34360;DHT22;20624;55.870;26.506;2023-02-28T15:46:07;2.80;99.90
34360;DHT22;20624;55.870;26.506;2023-02-28T15:48:51;2.80;99.90
34360;DHT22;20624;55.870;26.506;2023-02-28T15:51:22;2.80;99.90
34360;DHT22;20624;55.870;26.506;2023-02-28T15:53:56;2.70;99.90
34360;DHT22;20624;55.870;26.506;2023-02-28T15:56:38;2.70;99.90
34360;DHT22;20624;55.870;26.506;2023-02-28T15:59:24;2.70;99.90
34360;DHT22;20624;55.870;26.506;2023-02-28T16:02:15;2.10;99.90
34360;DHT22;20624;55.870;26.506;2023-02-28T16:07:29;2.70;99.90
34360;DHT22;20624;55.870;26.506;2023-02-28T16:09:57;2.70;99.90
34360;DHT22;20624;55.870;26.506;2023-02-28T16:12:27;2.60;99.90
34360;DHT22;20624;55.870;26.506;2023-02-28T16:15:03;2.70;99.90
34360;DHT22;20624;55.870;26.506;2023-02-28T16:17:35;2.60;99.90
34360;DHT22;20624;55.870;26.506;2023-02-28T16:20:21;2.70;99.90
34360;DHT22;20624;55.870;26.506;2023-02-28T16:22:52;2.70;99.90
34360;DHT22;20624;55.870;26.506;2023-02-28T16:25:33;2.90;99.90
34360;DHT22;20624;55.870;26.506;2023-02-28T16:28:02;2.70;99.90
34360;DHT22;20624;55.870;26.506;2023-02-28T16:30:30;2.70;99.90
34360;DHT22;20624;55.870;26.506;2023-02-28T16:35:28;2.70;99.90
34360;DHT22;20624;55.870;26.506;2023-02-28T16:37:55;2.70;99.90
34360;DHT22;20624;55.870;26.506;2023-02-28T16:40:24;2.00;99.90
34360;DHT22;20624;55.870;26.506;2023-02-28T16:42:55;2.70;99.90
34360;DHT22;20624;55.870;26.506;2023-02-28T16:45:28;2.70;99.90
34360;DHT22;20624;55.870;26.506;2023-02-28T16:47:56;2.70;99.90
34360;DHT22;20624;55.870;26.506;2023-02-28T16:50:26;2.80;99.90
34360;DHT22;20624;55.870;26.506;2023-02-28T16:52:55;2.00;99.90
34360;DHT22;20624;55.870;26.506;2023-02-28T16:55:24;2.70;99.90
34360;DHT22;20624;55.870;26.506;2023-02-28T16:57:54;2.70;99.90
34360;DHT22;20624;55.870;26.506;2023-02-28T17:00:22;2.70;99.90
34360;DHT22;20624;55.870;26.506;2023-02-28T17:02:51;2.70;99.90
34360;DHT22;20624;55.870;26.506;2023-02-28T17:05:19;2.70;99.90
34360;DHT22;20624;55.870;26.506;2023-02-28T17:07:47;3.20;99.90
34360;DHT22;20624;55.870;26.506;2023-02-28T17:10:24;2.60;99.90
34360;DHT22;20624;55.870;26.506;2023-02-28T17:12:54;2.70;99.90
34360;DHT22;20624;55.870;26.506;2023-02-28T17:15:35;2.70;99.90
34360;DHT22;20624;55.870;26.506;2023-02-28T17:18:05;2.70;99.90
34360;DHT22;20624;55.870;26.506;2023-02-28T17:20:35;2.70;99.90
34360;DHT22;20624;55.870;26.506;2023-02-28T17:25:30;2.70;99.90
34360;DHT22;20624;55.870;26.506;2023-02-28T17:30:26;2.70;99.90
34360;DHT22;20624;55.870;26.506;2023-02-28T17:32:55;2.80;99.90
34360;DHT22;20624;55.870;26.506;2023-02-28T17:37:51;2.70;99.90
34360;DHT22;20624;55.870;26.506;2023-02-28T17:40:22;2.80;99.90
34360;DHT22;20624;55.870;26.506;2023-02-28T17:42:50;2.80;99.90
34360;DHT22;20624;55.870;26.506;2023-02-28T17:47:49;2.70;99.90
34360;DHT22;20624;55.870;26.506;2023-02-28T17:50:20;2.80;99.90
34360;DHT22;20624;55.870;26.506;2023-02-28T17:52:48;2.80;99.90
34360;DHT22;20624;55.870;26.506;2023-02-28T17:55:17;2.80;99.90
34360;DHT22;20624;55.870;26.506;2023-02-28T18:00:15;2.80;99.90
34360;DHT22;20624;55.870;26.506;2023-02-28T18:02:43;2.80;99.90
34360;DHT22;20624;55.870;26.506;2023-02-28T18:10:20;2.80;99.90
34360;DHT22;20624;55.870;26.506;2023-02-28T18:12:50;2.90;99.90
34360;DHT22;20624;55.870;26.506;2023-02-28T18:15:18;2.90;99.90
34360;DHT22;20624;55.870;26.506;2023-02-28T18:17:47;2.80;99.90
34360;DHT22;20624;55.870;26.506;2023-02-28T18:22:43;3.10;99.90
34360;DHT22;20624;55.870;26.506;2023-02-28T18:25:11;2.90;99.90
34360;DHT22;20624;55.870;26.506;2023-02-28T18:27:44;2.90;99.90
34360;DHT22;20624;55.870;26.506;2023-02-28T18:30:26;2.90;99.90
34360;DHT22;20624;55.870;26.506;2023-02-28T18:32:58;3.50;99.90
34360;DHT22;20624;55.870;26.506;2023-02-28T18:35:26;3.00;99.90
34360;DHT22;20624;55.870;26.506;2023-02-28T18:40:41;3.00;99.90
34360;DHT22;20624;55.870;26.506;2023-02-28T18:48:10;3.00;99.90
34360;DHT22;20624;55.870;26.506;2023-02-28T18:50:40;3.00;99.90
34360;DHT22;20624;55.870;26.506;2023-02-28T18:53:10;3.20;99.90
34360;DHT22;20624;55.870;26.506;2023-02-28T18:55:37;3.00;99.90
34360;DHT22;20624;55.870;26.506;2023-02-28T18:58:08;3.00;99.90
34360;DHT22;20624;55.870;26.506;2023-02-28T19:00:36;3.00;99.90
34360;DHT22;20624;55.870;26.506;2023-02-28T19:05:31;2.90;99.90
34360;DHT22;20624;55.870;26.506;2023-02-28T19:08:03;2.90;99.90
34360;DHT22;20624;55.870;26.506;2023-02-28T19:12:58;2.90;99.90
34360;DHT22;20624;55.870;26.506;2023-02-28T19:17:53;2.30;99.90
34360;DHT22;20624;55.870;26.506;2023-02-28T19:25:19;2.80;99.90
34360;DHT22;20624;55.870;26.506;2023-02-28T19:27:46;2.80;99.90
34360;DHT22;20624;55.870;26.506;2023-02-28T19:32:44;2.80;99.90
34360;DHT22;20624;55.870;26.506;2023-02-28T19:35:12;2.80;99.90
34360;DHT22;20624;55.870;26.506;2023-02-28T19:37:39;2.70;99.90
34360;DHT22;20624;55.870;26.506;2023-02-28T19:40:08;2.70;99.90
34360;DHT22;20624;55.870;26.506;2023-02-28T19:42:35;2.80;99.90
34360;DHT22;20624;55.870;26.506;2023-02-28T19:45:03;2.80;99.90
34360;DHT22;20624;55.870;26.506;2023-02-28T19:57:24;2.20;99.90
34360;DHT22;20624;55.870;26.506;2023-02-28T20:02:21;3.00;99.90
34360;DHT22;20624;55.870;26.506;2023-02-28T20:04:49;2.70;99.90
34360;DHT22;20624;55.870;26.506;2023-02-28T20:07:18;2.70;99.90
34360;DHT22;20624;55.870;26.506;2023-02-28T20:09:48;2.70;99.90
34360;DHT22;20624;55.870;26.506;2023-02-28T20:14:52;2.70;99.90
34360;DHT22;20624;55.870;26.506;2023-02-28T20:17:23;2.70;99.90
34360;DHT22;20624;55.870;26.506;2023-02-28T20:19:51;2.70;99.90
34360;DHT22;20624;55.870;26.506;2023-02-28T20:22:18;2.70;99.90
34360;DHT22;20624;55.870;26.506;2023-02-28T20:24:46;2.70;99.90
34360;DHT22;20624;55.870;26.506;2023-02-28T20:32:09;2.60;99.90
34360;DHT22;20624;55.870;26.506;2023-02-28T20:34:38;2.40;99.90
34360;DHT22;20624;55.870;26.506;2023-02-28T20:37:06;2.60;99.90
34360;DHT22;20624;55.870;26.506;2023-02-28T20:39:33;2.60;99.90
34360;DHT22;20624;55.870;26.506;2023-02-28T20:44:30;2.60;99.90
34360;DHT22;20624;55.870;26.506;2023-02-28T20:49:26;2.60;99.90
34360;DHT22;20624;55.870;26.506;2023-02-28T21:01:47;2.50;99.90
34360;DHT22;20624;55.870;26.506;2023-02-28T21:09:17;2.30;99.90
34360;DHT22;20624;55.870;26.506;2023-02-28T21:14:16;2.50;99.90
34360;DHT22;20624;55.870;26.506;2023-02-28T21:21:41;2.40;99.90
34360;DHT22;20624;55.870;26.506;2023-02-28T21:24:17;2.40;99.90
34360;DHT22;20624;55.870;26.506;2023-02-28T21:29:13;2.40;99.90
34360;DHT22;20624;55.870;26.506;2023-02-28T21:31:41;2.60;99.90
34360;DHT22;20624;55.870;26.506;2023-02-28T21:34:10;2.60;99.90
34360;DHT22;20624;55.870;26.506;2023-02-28T21:36:40;2.40;99.90
34360;DHT22;20624;55.870;26.506;2023-02-28T21:39:18;2.10;99.90
34360;DHT22;20624;55.870;26.506;2023-02-28T21:41:46;2.40;99.90
34360;DHT22;20624;55.870;26.506;2023-02-28T21:44:14;2.40;99.90
34360;DHT22;20624;55.870;26.506;2023-02-28T21:46:46;2.40;99.90
34360;DHT22;20624;55.870;26.506;2023-02-28T21:49:14;2.30;99.90
34360;DHT22;20624;55.870;26.506;2023-02-28T21:51:41;2.40;99.90
34360;DHT22;20624;55.870;26.506;2023-02-28T21:54:09;2.40;99.90
34360;DHT22;20624;55.870;26.506;2023-02-28T21:56:39;2.40;99.90
34360;DHT22;20624;55.870;26.506;2023-02-28T21:59:07;2.40;99.90
34360;DHT22;20624;55.870;26.506;2023-02-28T22:01:37;2.40;99.90
34360;DHT22;20624;55.870;26.506;2023-02-28T22:04:07;2.20;99.90
34360;DHT22;20624;55.870;26.506;2023-02-28T22:06:37;2.30;99.90
34360;DHT22;20624;55.870;26.506;2023-02-28T22:09:07;2.30;99.90
34360;DHT22;20624;55.870;26.506;2023-02-28T22:11:35;2.30;99.90
34360;DHT22;20624;55.870;26.506;2023-02-28T22:14:03;2.30;99.90
34360;DHT22;20624;55.870;26.506;2023-02-28T22:16:31;2.30;99.90
34360;DHT22;20624;55.870;26.506;2023-02-28T22:19:16;2.20;99.90
34360;DHT22;20624;55.870;26.506;2023-02-28T22:21:46;2.20;99.90
34360;DHT22;20624;55.870;26.506;2023-02-28T22:26:43;2.20;99.90
34360;DHT22;20624;55.870;26.506;2023-02-28T22:29:11;2.20;99.90
34360;DHT22;20624;55.870;26.506;2023-02-28T22:31:38;2.20;99.90
34360;DHT22;20624;55.870;26.506;2023-02-28T22:34:10;2.20;99.90
34360;DHT22;20624;55.870;26.506;2023-02-28T22:36:42;1.90;99.90
34360;DHT22;20624;55.870;26.506;2023-02-28T22:44:05;1.30;99.90
34360;DHT22;20624;55.870;26.506;2023-02-28T22:49:03;2.00;99.90
34360;DHT22;20624;55.870;26.506;2023-02-28T22:56:27;1.70;99.90
34360;DHT22;20624;55.870;26.506;2023-02-28T23:01:28;2.00;99.90
34360;DHT22;20624;55.870;26.506;2023-02-28T23:03:56;1.60;99.90
34360;DHT22;20624;55.870;26.506;2023-02-28T23:06:26;1.60;99.90
34360;DHT22;20624;55.870;26.506;2023-02-28T23:08:57;1.60;99.90
34360;DHT22;20624;55.870;26.506;2023-02-28T23:11:31;1.60;99.90
34360;DHT22;20624;55.870;26.506;2023-02-28T23:14:01;1.60;99.90
34360;DHT22;20624;55.870;26.506;2023-02-28T23:19:13;1.50;99.90
34360;DHT22;20624;55.870;26.506;2023-02-28T23:21:43;1.50;99.90
34360;DHT22;20624;55.870;26.506;2023-02-28T23:26:42;1.50;99.90
34360;DHT22;20624;55.870;26.506;2023-02-28T23:29:11;1.40;99.90
34360;DHT22;20624;55.870;26.506;2023-02-28T23:31:39;1.50;99.90
34360;DHT22;20624;55.870;26.506;2023-02-28T23:36:34;1.40;99.90
34360;DHT22;20624;55.870;26.506;2023-02-28T23:39:01;1.40;99.90
34360;DHT22;20624;55.870;26.506;2023-02-28T23:41:29;1.40;99.90
34360;DHT22;20624;55.870;26.506;2023-02-28T23:43:56;1.30;99.90
34360;DHT22;20624;55.870;26.506;2023-02-28T23:46:23;1.40;99.90
34360;DHT22;20624;55.870;26.506;2023-02-28T23:48:51;1.60;99.90
34360;DHT22;20624;55.870;26.506;2023-02-28T23:51:20;1.40;99.90
34360;DHT22;20624;55.870;26.506;2023-02-28T23:53:49;1.40;99.90
34360;DHT22;20624;55.870;26.506;2023-02-28T23:56:20;1.40;99.90
34360;DHT22;20624;55.870;26.506;2023-02-28T23:58:48;1.40;99.90
